createdAt,value
2018-03-03T00:01:17.023Z,100267.83
2018-03-03T00:04:20.194Z,100254.93
2018-03-03T00:07:23.406Z,100257.73
2018-03-03T00:10:26.638Z,100260.83
2018-03-03T00:13:29.778Z,100261.39
2018-03-03T00:16:32.936Z,100250.22
2018-03-03T00:19:36.089Z,100247.22
2018-03-03T00:22:42.113Z,100242.36
2018-03-03T00:25:45.378Z,100225.89
2018-03-03T00:28:48.547Z,100230.55
2018-03-03T00:31:51.715Z,100239.83
2018-03-03T00:34:55.011Z,100236.77
2018-03-03T00:37:58.267Z,100227.32
2018-03-03T00:41:01.424Z,100233.23
2018-03-03T00:44:04.627Z,100235.19
2018-03-03T00:47:07.785Z,100231.47
2018-03-03T00:50:10.927Z,100234.20
2018-03-03T00:53:14.114Z,100230.08
2018-03-03T00:56:17.305Z,100225.78
2018-03-03T00:59:21.183Z,100225.78
2018-03-03T01:02:24.322Z,100226.38
2018-03-03T01:05:27.704Z,100227.26
2018-03-03T01:08:30.919Z,100226.61
2018-03-03T01:11:34.115Z,100222.13
2018-03-03T01:14:37.306Z,100220.80
2018-03-03T01:17:40.521Z,100208.99
2018-03-03T01:20:43.700Z,100208.99
2018-03-03T01:23:46.872Z,100213.20
2018-03-03T01:26:50.801Z,100222.78
2018-03-03T01:29:53.956Z,100214.07
2018-03-03T01:32:57.258Z,100209.03
2018-03-03T01:36:00.477Z,100204.67
2018-03-03T01:42:41.243Z,100212.11
2018-03-03T01:45:44.507Z,100213.41
2018-03-03T01:48:47.775Z,100214.56
2018-03-03T01:51:52.333Z,100207.99
2018-03-03T01:54:55.473Z,100207.55
2018-03-03T01:57:58.636Z,100206.77
2018-03-03T02:01:01.851Z,100201.42
2018-03-03T02:04:05.039Z,100198.31
2018-03-03T02:07:08.265Z,100193.61
2018-03-03T02:10:11.451Z,100188.09
2018-03-03T02:13:14.642Z,100187.82
2018-03-03T02:16:17.829Z,100178.45
2018-03-03T02:19:21.630Z,100167.90
2018-03-03T02:22:24.825Z,100166.97
2018-03-03T02:29:05.653Z,100176.70
2018-03-03T02:32:19.334Z,100163.27
2018-03-03T02:35:22.532Z,100140.87
2018-03-03T02:38:25.769Z,100132.39
2018-03-03T02:41:29.027Z,100142.40
2018-03-03T02:44:32.258Z,100153.43
2018-03-03T02:47:35.402Z,100133.89
2018-03-03T02:50:38.592Z,100132.31
2018-03-03T02:53:41.801Z,100141.15
2018-03-03T02:56:44.997Z,100143.09
2018-03-03T02:59:48.191Z,100148.39
2018-03-03T03:02:51.390Z,100145.45
2018-03-03T03:05:55.588Z,100133.10
2018-03-03T03:08:58.818Z,100127.26
2018-03-03T03:12:02.069Z,100122.57
2018-03-03T03:15:05.306Z,100116.56
2018-03-03T03:18:08.514Z,100112.85
2018-03-03T03:21:11.708Z,100112.52
2018-03-03T03:24:14.924Z,100117.30
2018-03-03T03:27:18.105Z,100118.07
2018-03-03T03:30:21.284Z,100124.24
2018-03-03T03:33:24.527Z,100122.83
2018-03-03T03:36:27.726Z,100123.90
2018-03-03T03:39:30.906Z,100116.22
2018-03-03T03:42:35.178Z,100100.72
2018-03-03T03:45:38.312Z,100101.34
2018-03-03T03:48:41.496Z,100099.32
2018-03-03T03:51:44.725Z,100096.95
2018-03-03T03:54:47.898Z,100092.93
2018-03-03T03:57:51.103Z,100083.89
2018-03-03T04:00:54.526Z,100072.11
2018-03-03T04:03:57.746Z,100070.00
2018-03-03T04:07:00.892Z,100062.33
2018-03-03T04:10:05.146Z,100061.35
2018-03-03T04:13:08.305Z,100055.52
2018-03-03T04:16:11.506Z,100058.10
2018-03-03T04:19:14.718Z,100056.52
2018-03-03T04:22:17.891Z,100049.68
2018-03-03T04:25:21.059Z,100043.62
2018-03-03T04:28:24.199Z,100052.44
2018-03-03T04:31:27.390Z,100041.71
2018-03-03T04:34:30.593Z,100032.99
2018-03-03T04:37:34.806Z,100038.65
2018-03-03T04:40:37.998Z,100040.84
2018-03-03T04:43:41.162Z,100040.36
2018-03-03T04:46:44.485Z,100041.94
2018-03-03T04:49:47.621Z,100035.51
2018-03-03T04:52:50.844Z,100031.65
2018-03-03T04:55:53.979Z,100040.11
2018-03-03T04:58:57.177Z,100039.41
2018-03-03T05:02:00.376Z,100022.55
2018-03-03T05:05:03.770Z,100026.74
2018-03-03T05:08:06.958Z,100027.92
2018-03-03T05:14:40.904Z,100015.77
2018-03-03T05:17:44.209Z,100018.08
2018-03-03T05:20:48.942Z,100014.56
2018-03-03T05:23:54.279Z,100010.74
2018-03-03T05:26:58.410Z,100008.62
2018-03-03T05:30:02.404Z,99994.02
2018-03-03T05:33:05.721Z,99988.37
2018-03-03T05:36:09.722Z,99979.97
2018-03-03T05:39:13.227Z,99981.23
2018-03-03T05:42:17.525Z,99986.35
2018-03-03T05:45:24.572Z,99983.88
2018-03-03T05:48:28.363Z,99981.20
2018-03-03T05:51:31.745Z,99978.32
2018-03-03T05:54:35.035Z,99981.43
2018-03-03T05:57:39.167Z,99980.34
2018-03-03T06:00:42.329Z,99984.73
2018-03-03T06:03:45.972Z,99983.92
2018-03-03T06:06:49.223Z,99981.31
2018-03-03T06:09:52.445Z,99983.23
2018-03-03T06:12:55.618Z,99980.97
2018-03-03T06:15:58.839Z,99986.43
2018-03-03T06:19:01.989Z,99987.95
2018-03-03T06:22:05.175Z,99983.23
2018-03-03T06:25:08.372Z,99984.78
2018-03-03T06:28:11.547Z,99985.95
2018-03-03T06:31:14.687Z,99985.18
2018-03-03T06:34:18.801Z,99984.76
2018-03-03T06:37:21.977Z,99981.55
2018-03-03T06:40:25.185Z,99986.46
2018-03-03T06:47:06.348Z,99993.90
2018-03-03T06:50:09.495Z,99992.44
2018-03-03T06:53:12.683Z,99983.67
2018-03-03T06:56:16.099Z,99975.23
2018-03-03T06:59:19.262Z,99970.83
2018-03-03T07:02:22.464Z,99971.50
2018-03-03T07:05:25.759Z,99978.65
2018-03-03T07:08:29.003Z,99980.71
2018-03-03T07:11:32.185Z,99988.12
2018-03-03T07:14:35.395Z,99991.17
2018-03-03T07:17:38.602Z,99990.23
2018-03-03T07:20:41.840Z,99991.22
2018-03-03T07:23:45.070Z,99996.23
2018-03-03T07:26:48.255Z,99994.92
2018-03-03T07:29:51.616Z,99995.82
2018-03-03T07:32:55.050Z,99994.58
2018-03-03T07:35:58.877Z,99984.77
2018-03-03T07:39:02.066Z,99984.17
2018-03-03T07:42:05.238Z,99986.31
2018-03-03T07:45:08.514Z,99983.47
2018-03-03T07:48:11.659Z,99990.34
2018-03-03T07:51:14.803Z,99992.72
2018-03-03T07:54:18.007Z,99993.17
2018-03-03T07:57:21.355Z,99991.72
2018-03-03T08:00:24.729Z,99998.10
2018-03-03T08:03:27.904Z,99995.21
2018-03-03T08:06:31.057Z,99989.54
2018-03-03T08:09:34.231Z,99993.76
2018-03-03T08:12:37.424Z,99981.67
2018-03-03T08:15:40.638Z,99982.17
2018-03-03T08:22:14.554Z,99988.97
2018-03-03T08:25:18.880Z,99994.65
2018-03-03T08:28:22.033Z,99989.80
2018-03-03T08:31:25.230Z,99983.38
2018-03-03T08:34:28.409Z,99984.71
2018-03-03T08:37:31.657Z,99977.36
2018-03-03T08:40:34.812Z,99981.89
2018-03-03T08:43:37.991Z,99974.51
2018-03-03T08:46:41.195Z,99968.92
2018-03-03T08:49:44.399Z,99966.54
2018-03-03T08:52:47.581Z,99963.18
2018-03-03T08:55:50.778Z,99961.33
2018-03-03T08:58:53.915Z,99962.22
2018-03-03T09:01:57.058Z,99962.08
2018-03-03T09:05:00.357Z,99962.05
2018-03-03T09:08:03.547Z,99963.83
2018-03-03T09:11:06.693Z,99968.96
2018-03-03T09:14:09.839Z,99966.51
2018-03-03T09:17:13.030Z,99969.42
2018-03-03T09:20:16.276Z,99954.43
2018-03-03T09:23:19.757Z,99954.18
2018-03-03T09:26:22.949Z,99952.87
2018-03-03T09:29:26.084Z,99956.89
2018-03-03T09:32:29.221Z,99963.18
2018-03-03T09:35:32.424Z,99963.31
2018-03-03T09:38:35.626Z,99957.51
2018-03-03T09:41:38.838Z,99952.12
2018-03-03T09:44:42.082Z,99948.39
2018-03-03T09:47:45.315Z,99945.67
2018-03-03T09:50:48.546Z,99939.40
2018-03-03T09:53:51.837Z,99938.60
2018-03-03T09:56:54.990Z,99941.62
2018-03-03T09:59:58.188Z,99940.81
2018-03-03T10:03:01.394Z,99934.45
2018-03-03T10:06:04.590Z,99935.27
2018-03-03T10:09:07.775Z,99927.68
2018-03-03T10:12:10.971Z,99922.84
2018-03-03T10:15:14.184Z,99918.54
2018-03-03T10:18:17.534Z,99915.77
2018-03-03T10:21:20.738Z,99916.52
2018-03-03T10:24:23.960Z,99916.63
2018-03-03T10:27:27.199Z,99911.15
2018-03-03T10:30:30.367Z,99909.81
2018-03-03T10:33:33.634Z,99909.12
2018-03-03T10:40:15.032Z,99908.68
2018-03-03T10:43:18.240Z,99904.51
2018-03-03T10:49:59.067Z,99900.76
2018-03-03T10:53:02.298Z,99897.92
2018-03-03T10:59:43.390Z,99884.64
2018-03-03T11:02:46.611Z,99888.92
2018-03-03T11:05:49.861Z,99890.25
2018-03-03T11:08:53.007Z,99887.35
2018-03-03T11:11:56.197Z,99886.64
2018-03-03T11:14:59.342Z,99881.14
2018-03-03T11:18:02.485Z,99875.64
2018-03-03T11:21:05.663Z,99872.31
2018-03-03T11:24:08.806Z,99864.44
2018-03-03T11:30:50.163Z,99858.70
2018-03-03T11:33:54.258Z,99857.96
2018-03-03T11:36:57.430Z,99852.90
2018-03-03T11:40:00.645Z,99855.24
2018-03-03T11:43:03.819Z,99851.01
2018-03-03T11:46:07.034Z,99855.77
2018-03-03T11:49:10.269Z,99860.25
2018-03-03T11:52:13.468Z,99864.87
2018-03-03T11:55:16.610Z,99865.62
2018-03-03T11:58:19.824Z,99862.61
2018-03-03T12:01:24.073Z,99854.04
2018-03-03T12:04:27.219Z,99852.14
2018-03-03T12:07:30.396Z,99854.97
2018-03-03T12:10:33.689Z,99855.22
2018-03-03T12:13:36.954Z,99859.32
2018-03-03T12:16:40.295Z,99864.71
2018-03-03T12:19:43.554Z,99855.20
2018-03-03T12:22:46.708Z,99855.67
2018-03-03T12:25:49.869Z,99849.40
2018-03-03T12:28:53.071Z,99846.53
2018-03-03T12:31:56.243Z,99846.59
2018-03-03T12:34:59.506Z,99848.80
2018-03-03T12:38:02.721Z,99852.73
2018-03-03T12:41:06.390Z,99855.80
2018-03-03T12:44:09.531Z,99852.69
2018-03-03T12:47:12.896Z,99849.87
2018-03-03T12:50:16.159Z,99853.92
2018-03-03T12:53:19.297Z,99846.29
2018-03-03T12:56:22.678Z,99841.96
2018-03-03T12:59:25.967Z,99838.55
2018-03-03T13:02:30.194Z,99838.28
2018-03-03T13:05:33.593Z,99842.26
2018-03-03T13:08:36.835Z,99837.74
2018-03-03T13:11:39.995Z,99843.58
2018-03-03T13:14:43.370Z,99846.37
2018-03-03T13:17:46.637Z,99851.16
2018-03-03T13:20:49.824Z,99853.78
2018-03-03T13:23:52.970Z,99849.27
2018-03-03T13:26:56.262Z,99853.48
2018-03-03T13:29:59.432Z,99854.59
2018-03-03T13:33:02.724Z,99856.71
2018-03-03T13:36:06.051Z,99860.28
2018-03-03T13:39:09.319Z,99866.06
2018-03-03T13:42:12.493Z,99858.45
2018-03-03T13:45:15.660Z,99860.52
2018-03-03T13:48:18.876Z,99862.12
2018-03-03T13:51:22.036Z,99874.92
2018-03-03T13:54:25.297Z,99865.53
2018-03-03T13:57:28.465Z,99867.51
2018-03-03T14:00:31.681Z,99864.55
2018-03-03T14:03:34.836Z,99865.40
2018-03-03T14:06:38.071Z,99865.11
2018-03-03T14:09:41.259Z,99865.33
2018-03-03T14:12:44.477Z,99867.67
2018-03-03T14:15:47.631Z,99857.45
2018-03-03T14:18:50.982Z,99873.61
2018-03-03T14:21:55.237Z,99878.56
2018-03-03T14:24:58.494Z,99875.57
2018-03-03T14:28:01.664Z,99876.77
2018-03-03T14:31:05.066Z,99872.99
2018-03-03T14:34:08.289Z,99874.65
2018-03-03T14:37:11.570Z,99872.49
2018-03-03T14:40:14.899Z,99869.89
2018-03-03T14:43:18.104Z,99873.09
2018-03-03T14:46:21.765Z,99868.19
2018-03-03T14:49:24.967Z,99869.71
2018-03-03T14:52:28.182Z,99874.70
2018-03-03T14:55:31.766Z,99877.67
2018-03-03T14:58:34.983Z,99893.97
2018-03-03T15:01:38.166Z,99900.89
2018-03-03T15:04:41.337Z,99900.38
2018-03-03T15:07:44.856Z,99893.67
2018-03-03T15:10:48.770Z,99904.48
2018-03-03T15:13:51.980Z,99909.02
2018-03-03T15:16:55.740Z,99914.74
2018-03-03T15:19:59.043Z,99922.77
2018-03-03T15:23:02.311Z,99925.03
2018-03-03T15:26:05.616Z,99922.25
2018-03-03T15:29:08.889Z,99929.44
2018-03-03T15:32:12.232Z,99934.65
2018-03-03T15:35:15.547Z,99942.89
2018-03-03T15:38:18.790Z,99943.29
2018-03-03T15:41:22.145Z,99946.30
2018-03-03T15:44:25.474Z,99954.82
2018-03-03T15:47:29.269Z,99961.47
2018-03-03T15:50:32.530Z,99965.81
2018-03-03T15:53:35.826Z,99979.73
2018-03-03T15:56:39.159Z,99988.43
2018-03-03T15:59:42.324Z,100001.78
2018-03-03T16:02:45.588Z,100006.74
2018-03-03T16:05:48.849Z,100010.36
2018-03-03T16:08:52.052Z,100012.74
2018-03-03T16:11:55.379Z,100028.27
2018-03-03T16:14:58.854Z,100030.80
2018-03-03T16:18:02.263Z,100037.74
2018-03-03T16:21:05.603Z,100035.27
2018-03-03T16:24:08.903Z,100039.57
2018-03-03T16:27:12.468Z,100045.77
2018-03-03T16:30:15.832Z,100051.14
2018-03-03T16:33:19.258Z,100057.03
2018-03-03T16:36:22.535Z,100061.25
2018-03-03T16:39:25.863Z,100076.77
2018-03-03T16:42:29.385Z,100083.51
2018-03-03T16:45:32.698Z,100088.85
2018-03-03T16:48:35.964Z,100095.56
2018-03-03T16:51:39.358Z,100108.56
2018-03-03T16:54:42.777Z,100116.85
2018-03-03T16:57:46.106Z,100119.07
2018-03-03T17:00:49.470Z,100128.76
2018-03-03T17:03:52.696Z,100134.61
2018-03-03T17:06:55.929Z,100132.96
2018-03-03T17:09:59.235Z,100129.56
2018-03-03T17:13:02.536Z,100130.02
2018-03-03T17:16:05.974Z,100140.17
2018-03-03T17:19:09.097Z,100149.83
2018-03-03T17:22:12.342Z,100154.41
2018-03-03T17:25:15.614Z,100155.80
2018-03-03T17:28:18.974Z,100159.15
2018-03-03T17:31:22.268Z,100159.68
2018-03-03T17:34:25.562Z,100171.29
2018-03-03T17:37:28.848Z,100176.54
2018-03-03T17:40:32.139Z,100176.01
2018-03-03T17:43:35.341Z,100177.99
2018-03-03T17:46:38.577Z,100177.43
2018-03-03T17:49:41.755Z,100177.03
2018-03-03T17:52:45.014Z,100185.07
2018-03-03T17:55:49.330Z,100185.98
2018-03-03T17:58:52.631Z,100193.42
2018-03-03T18:01:55.938Z,100196.90
2018-03-03T18:04:59.118Z,100197.76
2018-03-03T18:08:02.329Z,100195.28
2018-03-03T18:11:06.439Z,100199.17
2018-03-03T18:14:09.636Z,100194.15
2018-03-03T18:17:13.933Z,100204.69
2018-03-03T18:20:17.643Z,100202.78
2018-03-03T18:23:21.208Z,100205.75
2018-03-03T18:26:25.336Z,100205.29
2018-03-03T18:29:28.714Z,100209.29
2018-03-03T18:32:32.026Z,100206.65
2018-03-03T18:35:35.297Z,100199.00
2018-03-03T18:38:38.702Z,100198.08
2018-03-03T18:41:42.067Z,100201.59
2018-03-03T18:44:45.385Z,100202.23
2018-03-03T18:47:48.614Z,100205.29
2018-03-03T18:50:51.878Z,100205.49
2018-03-03T18:53:55.198Z,100209.36
2018-03-03T18:56:58.704Z,100208.22
2018-03-03T19:00:01.996Z,100205.28
2018-03-03T19:03:05.291Z,100207.22
2018-03-03T19:06:09.425Z,100205.87
2018-03-03T19:09:12.699Z,100210.20
2018-03-03T19:12:15.993Z,100212.65
2018-03-03T19:15:19.223Z,100220.59
2018-03-03T19:18:22.499Z,100223.01
2018-03-03T19:21:26.784Z,100224.15
2018-03-03T19:24:30.041Z,100230.57
2018-03-03T19:27:33.330Z,100244.40
2018-03-03T19:30:37.459Z,100250.35
2018-03-03T19:33:40.762Z,100248.47
2018-03-03T19:36:44.783Z,100247.34
2018-03-03T19:39:48.027Z,100252.41
2018-03-03T19:42:51.367Z,100249.76
2018-03-03T19:45:54.618Z,100252.67
2018-03-03T19:48:57.959Z,100260.12
2018-03-03T19:52:01.265Z,100260.04
2018-03-03T19:55:05.030Z,100267.19
2018-03-03T19:58:08.404Z,100268.02
2018-03-03T20:01:11.880Z,100268.44
2018-03-03T20:04:15.939Z,100272.30
2018-03-03T20:07:19.232Z,100270.09
2018-03-03T20:10:22.727Z,100277.83
2018-03-03T20:13:25.982Z,100281.69
2018-03-03T20:16:29.278Z,100282.16
2018-03-03T20:19:32.510Z,100280.58
2018-03-03T20:22:35.778Z,100271.99
2018-03-03T20:25:38.940Z,100271.95
2018-03-03T20:28:42.363Z,100272.06
2018-03-03T20:31:45.731Z,100280.54
2018-03-03T20:34:48.915Z,100286.76
2018-03-03T20:37:52.278Z,100290.28
2018-03-03T20:40:55.561Z,100283.27
2018-03-03T20:43:58.866Z,100288.01
2018-03-03T20:47:02.165Z,100288.77
2018-03-03T20:50:05.423Z,100285.55
2018-03-03T20:53:10.114Z,100282.37
2018-03-03T20:56:13.368Z,100279.54
2018-03-03T20:59:16.693Z,100283.94
2018-03-03T21:02:19.964Z,100284.41
2018-03-03T21:05:23.189Z,100284.31
2018-03-03T21:08:26.441Z,100275.34
2018-03-03T21:11:29.736Z,100274.25
2018-03-03T21:14:33.045Z,100273.21
2018-03-03T21:17:36.729Z,100272.02
2018-03-03T21:20:40.113Z,100273.09
2018-03-03T21:23:43.304Z,100277.85
2018-03-03T21:26:56.407Z,100279.73
2018-03-03T21:29:59.596Z,100282.07
2018-03-03T21:33:03.726Z,100286.79
2018-03-03T21:36:06.874Z,100283.19
2018-03-03T21:39:11.033Z,100283.13
2018-03-03T21:42:14.233Z,100283.77
2018-03-03T21:45:17.386Z,100281.35
2018-03-03T21:48:20.541Z,100285.20
2018-03-03T21:51:23.792Z,100288.23
2018-03-03T21:54:28.955Z,100292.26
2018-03-03T21:57:32.180Z,100296.73
2018-03-03T22:00:35.284Z,100291.04
2018-03-03T22:03:39.463Z,100297.23
2018-03-03T22:06:50.344Z,100302.23
2018-03-03T22:09:54.692Z,100309.95
2018-03-03T22:12:58.881Z,100317.80
2018-03-03T22:16:02.103Z,100317.12
2018-03-03T22:19:06.266Z,100317.36
2018-03-03T22:22:11.408Z,100319.33
2018-03-03T22:25:24.207Z,100322.09
2018-03-03T22:28:27.392Z,100321.82
2018-03-03T22:31:31.538Z,100321.21
2018-03-03T22:34:35.672Z,100322.93
2018-03-03T22:37:38.832Z,100322.84
2018-03-03T22:40:51.706Z,100320.56
2018-03-03T22:43:55.510Z,100321.90
2018-03-03T22:46:58.729Z,100326.00
2018-03-03T22:50:02.896Z,100328.19
2018-03-03T22:53:06.184Z,100332.77
2018-03-03T22:56:09.364Z,100332.68
2018-03-03T22:59:14.519Z,100334.54
2018-03-03T23:02:23.251Z,100339.41
2018-03-03T23:05:26.439Z,100342.04
2018-03-03T23:08:31.580Z,100350.92
2018-03-03T23:11:36.737Z,100359.50
2018-03-03T23:14:46.442Z,100363.12
2018-03-03T23:17:49.641Z,100369.38
2018-03-03T23:20:53.807Z,100368.93
2018-03-03T23:23:57.856Z,100370.36
2018-03-03T23:27:01.039Z,100376.98
2018-03-03T23:30:04.460Z,100382.59
2018-03-03T23:33:09.726Z,100386.34
2018-03-03T23:36:15.968Z,100390.00
2018-03-03T23:39:20.126Z,100393.93
2018-03-03T23:42:23.261Z,100391.62
2018-03-03T23:45:26.464Z,100393.20
2018-03-03T23:48:31.644Z,100396.62
2018-03-03T23:51:36.821Z,100398.04
2018-03-03T23:54:40.040Z,100401.44
2018-03-03T23:57:44.194Z,100396.43
